Time;durP1;ratioP1;P1;durP2;ratioP2;P2;SDS_P1;SDS_P2;PMS_P1;PMS_P2;Temp;Humidity;BMP_temperature;BMP_pressure;BME280_temperature;BME280_humidity;BME280_pressure;Samples;Min_cycle;Max_cycle;Signal;HPM_P1;HPM_P2
2023/10/20 00:00:07;;;;;;;0.90;0.57;;;;;;;14.69;100.00;95711.31;4120465;28;20214;-46
2023/10/20 00:02:09;;;;;;;0.73;0.50;;;;;;;14.74;100.00;95702.84;4137516;28;20208;-47
2023/10/20 00:04:11;;;;;;;0.40;0.40;;;;;;;14.76;100.00;95695.03;4107330;28;20242;-47
2023/10/20 00:06:14;;;;;;;1.25;0.60;;;;;;;14.71;100.00;95694.47;4123230;28;20206;-47
2023/10/20 00:08:15;;;;;;;0.45;0.45;;;;;;;14.71;100.00;95692.50;4104829;28;20629;-46
2023/10/20 00:10:17;;;;;;;0.52;0.52;;;;;;;14.71;100.00;95698.00;4107842;28;20217;-46
2023/10/20 00:12:19;;;;;;;0.43;0.43;;;;;;;14.73;100.00;95695.72;4091582;28;20204;-46
2023/10/20 00:14:21;;;;;;;0.45;0.45;;;;;;;14.71;100.00;95691.72;4120189;28;20273;-46
2023/10/20 00:16:27;;;;;;;0.50;0.50;;;;;;;14.72;100.00;95698.81;4122261;28;20206;-45
2023/10/20 00:18:29;;;;;;;0.65;0.65;;;;;;;14.80;100.00;95695.94;4136695;28;20244;-46
2023/10/20 00:20:31;;;;;;;1.95;0.88;;;;;;;14.72;100.00;95696.06;4123035;28;20292;-45
2023/10/20 00:22:33;;;;;;;0.70;0.70;;;;;;;14.71;100.00;95709.00;4107599;28;20215;-45
2023/10/20 00:24:35;;;;;;;0.85;0.85;;;;;;;14.71;100.00;95711.75;4121888;28;20276;-45
2023/10/20 00:26:36;;;;;;;0.80;0.80;;;;;;;14.81;100.00;95707.75;4121902;28;20210;-45
2023/10/20 00:28:39;;;;;;;0.90;0.60;;;;;;;14.76;100.00;95716.25;4119493;28;20285;-46
2023/10/20 00:30:41;;;;;;;0.52;0.35;;;;;;;14.74;100.00;95716.59;4120324;28;20229;-46
2023/10/20 00:32:45;;;;;;;0.60;0.60;;;;;;;14.74;100.00;95719.34;4105630;28;20262;-45
2023/10/20 00:34:47;;;;;;;1.40;0.90;;;;;;;14.75;100.00;95709.13;4116027;28;20882;-46
2023/10/20 00:36:48;;;;;;;0.40;0.40;;;;;;;14.64;100.00;95708.00;4103885;28;20215;-46
2023/10/20 00:38:50;;;;;;;0.55;0.55;;;;;;;14.67;100.00;95696.28;4085768;28;20291;-45
2023/10/20 00:40:55;;;;;;;0.85;0.47;;;;;;;14.62;100.00;95697.31;4105992;28;20661;-45
2023/10/20 00:42:57;;;;;;;0.60;0.60;;;;;;;14.69;100.00;95705.81;4119931;28;20264;-46
2023/10/20 00:44:58;;;;;;;1.00;0.50;;;;;;;14.57;100.00;95697.56;4107679;28;20241;-45
2023/10/20 00:47:00;;;;;;;0.40;0.40;;;;;;;14.56;100.00;95690.44;4102425;28;20628;-45
2023/10/20 00:49:02;;;;;;;0.70;0.60;;;;;;;14.55;100.00;95683.34;4105323;28;20198;-45
2023/10/20 00:51:05;;;;;;;0.65;0.65;;;;;;;14.57;100.00;95685.75;4105765;28;20206;-45
2023/10/20 00:53:09;;;;;;;0.90;0.90;;;;;;;14.54;100.00;95679.00;4120753;28;20229;-46
2023/10/20 00:55:11;;;;;;;5.65;0.70;;;;;;;14.59;100.00;95676.00;4134805;28;20242;-47
2023/10/20 00:57:16;;;;;;;0.50;0.50;;;;;;;14.55;100.00;95674.28;4102823;28;20206;-46
2023/10/20 00:59:17;;;;;;;0.50;0.50;;;;;;;14.57;100.00;95664.53;4115703;28;20215;-46
2023/10/20 01:01:19;;;;;;;0.40;0.40;;;;;;;14.54;100.00;95656.97;4114721;28;20425;-45
2023/10/20 01:03:22;;;;;;;0.70;0.70;;;;;;;14.49;100.00;95659.16;4117529;28;20238;-46
2023/10/20 01:05:24;;;;;;;0.60;0.60;;;;;;;14.49;100.00;95650.91;4102545;28;20215;-45
2023/10/20 01:07:26;;;;;;;0.65;0.65;;;;;;;14.47;100.00;95653.19;4135670;28;20206;-45
2023/10/20 01:09:28;;;;;;;0.50;0.50;;;;;;;14.51;100.00;95643.91;4119549;28;20694;-46
2023/10/20 01:11:30;;;;;;;0.52;0.50;;;;;;;14.50;100.00;95649.75;4118785;28;20211;-45
2023/10/20 01:13:32;;;;;;;0.60;0.50;;;;;;;14.51;100.00;95638.38;4102612;28;20236;-45
2023/10/20 01:15:35;;;;;;;0.40;0.40;;;;;;;14.51;100.00;95638.38;4117644;28;20265;-45
2023/10/20 01:17:39;;;;;;;0.60;0.60;;;;;;;14.50;100.00;95641.50;4120311;28;20269;-46
2023/10/20 01:19:41;;;;;;;0.82;0.82;;;;;;;14.53;100.00;95635.31;4118605;28;20328;-46
2023/10/20 01:21:43;;;;;;;0.50;0.50;;;;;;;14.54;100.00;95632.22;4103815;28;20226;-46
2023/10/20 01:23:45;;;;;;;0.47;0.47;;;;;;;14.57;100.00;95620.50;4101797;28;20777;-46
2023/10/20 01:25:46;;;;;;;5.50;0.40;;;;;;;14.53;100.00;95625.09;4101897;28;20513;-45
2023/10/20 01:27:48;;;;;;;0.43;0.43;;;;;;;14.54;100.00;95621.22;4119827;28;20681;-46
2023/10/20 01:29:50;;;;;;;0.52;0.50;;;;;;;14.55;100.00;95611.81;4100922;28;20218;-45
2023/10/20 01:31:51;;;;;;;0.40;0.40;;;;;;;14.55;100.00;95606.28;4102592;28;20215;-45
2023/10/20 01:33:53;;;;;;;0.30;0.30;;;;;;;14.56;100.00;95602.38;4136282;28;20256;-45
2023/10/20 01:35:55;;;;;;;0.45;0.45;;;;;;;14.60;100.00;95592.31;4116838;28;20763;-46
2023/10/20 01:37:57;;;;;;;0.60;0.60;;;;;;;14.59;100.00;95590.72;4119841;28;20636;-45
2023/10/20 01:39:58;;;;;;;0.40;0.40;;;;;;;14.57;100.00;95579.22;4104979;28;20202;-45
2023/10/20 01:42:00;;;;;;;0.57;0.57;;;;;;;14.54;100.00;95588.19;4101074;28;20242;-46
2023/10/20 01:44:02;;;;;;;0.40;0.40;;;;;;;14.53;100.00;95581.09;4136367;28;20225;-45
2023/10/20 01:46:04;;;;;;;0.75;0.40;;;;;;;14.55;100.00;95577.97;4115799;28;20227;-45
2023/10/20 01:48:06;;;;;;;0.77;0.50;;;;;;;14.55;100.00;95569.72;4102007;28;20195;-45
2023/10/20 01:50:08;;;;;;;0.60;0.60;;;;;;;14.53;100.00;95564.56;4117135;28;20209;-47
2023/10/20 01:52:10;;;;;;;0.50;0.50;;;;;;;14.56;100.00;95563.88;4102492;28;20207;-45
2023/10/20 01:54:12;;;;;;;0.50;0.50;;;;;;;14.56;100.00;95563.88;4105068;28;20876;-45
2023/10/20 01:56:13;;;;;;;0.50;0.50;;;;;;;14.54;100.00;95551.59;4117392;28;20592;-45
2023/10/20 01:58:19;;;;;;;0.75;0.70;;;;;;;14.48;100.00;95540.03;4137552;28;20213;-45
2023/10/20 02:00:22;;;;;;;0.75;0.55;;;;;;;14.56;100.00;95521.81;4103691;28;20208;-45
2023/10/20 02:02:24;;;;;;;0.70;0.70;;;;;;;14.57;100.00;95531.66;4099922;28;20222;-45
2023/10/20 02:04:26;;;;;;;0.43;0.43;;;;;;;14.55;100.00;95529.25;4103405;28;20318;-46
2023/10/20 02:06:27;;;;;;;0.60;0.60;;;;;;;14.53;100.00;95526.06;4116427;28;20238;-45
2023/10/20 02:08:29;;;;;;;0.68;0.68;;;;;;;14.51;100.00;95516.53;4117387;28;20246;-45
2023/10/20 02:10:31;;;;;;;0.60;0.60;;;;;;;14.49;100.00;95519.63;4118856;28;20257;-45
2023/10/20 02:12:33;;;;;;;0.45;0.45;;;;;;;14.60;100.00;95518.00;4135186;28;20198;-45
2023/10/20 02:14:35;;;;;;;0.50;0.50;;;;;;;14.58;100.00;95509.28;4100871;28;20741;-46
2023/10/20 02:16:37;;;;;;;0.52;0.52;;;;;;;14.50;100.00;95499.22;4118815;28;20303;-45
2023/10/20 02:18:39;;;;;;;0.77;0.60;;;;;;;14.46;100.00;95492.84;4103552;28;20565;-47
2023/10/20 02:20:41;;;;;;;0.50;0.50;;;;;;;14.42;100.00;95486.41;4103871;28;20707;-45
2023/10/20 02:22:43;;;;;;;1.55;1.45;;;;;;;14.41;100.00;95475.75;4134570;28;20583;-45
2023/10/20 02:24:45;;;;;;;0.63;0.63;;;;;;;14.41;100.00;95473.81;4102163;28;20231;-47
2023/10/20 02:26:47;;;;;;;3.15;0.57;;;;;;;14.41;100.00;95473.81;4120950;28;20779;-45
2023/10/20 02:28:49;;;;;;;1.33;0.70;;;;;;;14.42;100.00;95463.63;4107020;28;20218;-47
2023/10/20 02:30:51;;;;;;;0.98;0.95;;;;;;;14.46;100.00;95459.00;4101273;28;20235;-45
2023/10/20 02:32:54;;;;;;;0.70;0.70;;;;;;;14.43;100.00;95459.72;4103524;28;20301;-45
2023/10/20 02:34:59;;;;;;;1.33;1.23;;;;;;;14.39;100.00;95461.56;4103253;28;20237;-45
2023/10/20 02:37:02;;;;;;;1.15;0.90;;;;;;;14.44;100.00;95470.34;4118408;28;20249;-45
2023/10/20 02:39:04;;;;;;;1.83;1.00;;;;;;;14.43;100.00;95454.22;4101768;28;20632;-45
2023/10/20 02:41:06;;;;;;;1.00;0.90;;;;;;;14.34;100.00;95445.28;4101300;28;20223;-45
2023/10/20 02:43:08;;;;;;;0.82;0.82;;;;;;;14.38;100.00;95441.47;4102488;28;20230;-45
2023/10/20 02:45:10;;;;;;;1.88;1.70;;;;;;;14.40;100.00;95439.19;4101298;28;20574;-46
2023/10/20 02:47:13;;;;;;;1.73;1.48;;;;;;;14.37;100.00;95434.38;4104263;28;20716;-46
2023/10/20 02:49:14;;;;;;;1.00;1.00;;;;;;;14.38;100.00;95430.47;4102510;28;20290;-45
2023/10/20 02:51:17;;;;;;;1.20;1.10;;;;;;;14.35;100.00;95414.69;4117487;28;20346;-44
2023/10/20 02:53:19;;;;;;;1.33;1.23;;;;;;;14.29;100.00;95405.09;4101637;28;20286;-46
2023/10/20 02:55:21;;;;;;;1.90;1.70;;;;;;;14.37;100.00;95404.13;4101978;28;20254;-46
2023/10/20 02:57:23;;;;;;;1.35;1.25;;;;;;;14.32;100.00;95401.66;4117220;28;20229;-46
2023/10/20 02:59:25;;;;;;;1.30;1.20;;;;;;;14.32;100.00;95403.59;4103132;28;20206;-46
2023/10/20 03:01:26;;;;;;;1.98;1.40;;;;;;;14.35;100.00;95400.94;4117842;28;20725;-45
2023/10/20 03:03:28;;;;;;;1.52;1.27;;;;;;;14.33;100.00;95395.00;4101525;28;20254;-45
2023/10/20 03:05:30;;;;;;;2.22;1.70;;;;;;;14.27;100.00;95387.31;4101632;28;20230;-45
2023/10/20 03:07:32;;;;;;;1.60;1.25;;;;;;;14.29;100.00;95371.28;4102100;28;20329;-44
2023/10/20 03:09:35;;;;;;;2.47;2.28;;;;;;;14.31;100.00;95363.47;4135047;28;20213;-46
2023/10/20 03:11:37;;;;;;;1.95;1.52;;;;;;;14.30;100.00;95357.16;4119117;28;20238;-48
2023/10/20 03:13:39;;;;;;;1.60;1.50;;;;;;;14.41;100.00;95362.97;4102116;28;20313;-46
2023/10/20 03:15:40;;;;;;;1.92;1.42;;;;;;;14.31;100.00;95342.25;4119450;28;20727;-45
2023/10/20 03:17:42;;;;;;;2.55;1.77;;;;;;;14.35;100.00;95342.34;4100526;28;20211;-45
2023/10/20 03:19:45;;;;;;;1.92;1.83;;;;;;;14.33;100.00;95328.97;4117070;28;20696;-46
2023/10/20 03:21:47;;;;;;;2.03;1.92;;;;;;;14.32;100.00;95332.06;4085794;28;20266;-45
2023/10/20 03:23:49;;;;;;;2.65;2.00;;;;;;;14.33;100.00;95315.22;4100438;28;20254;-45
2023/10/20 03:25:51;;;;;;;2.95;2.00;;;;;;;14.26;100.00;95306.78;4103309;28;20310;-45
2023/10/20 03:27:53;;;;;;;1.77;1.65;;;;;;;14.29;100.00;95325.31;4102734;28;20207;-46
2023/10/20 03:29:55;;;;;;;2.15;1.95;;;;;;;14.22;100.00;95333.38;4102883;28;20218;-45
2023/10/20 03:31:56;;;;;;;2.67;2.47;;;;;;;14.22;100.00;95321.59;4117501;28;20221;-44
2023/10/20 03:33:59;;;;;;;2.47;1.88;;;;;;;14.26;100.00;95301.28;4116361;28;20242;-46
2023/10/20 03:36:03;;;;;;;1.70;1.60;;;;;;;14.18;100.00;95288.47;4101281;28;20578;-45
2023/10/20 03:38:06;;;;;;;1.95;1.85;;;;;;;14.20;100.00;95290.88;4103133;28;20211;-45
2023/10/20 03:40:16;;;;;;;2.03;1.83;;;;;;;14.15;100.00;95277.34;4119717;28;20203;-46
2023/10/20 03:42:18;;;;;;;1.90;1.70;;;;;;;14.17;100.00;95269.56;4133842;28;20696;-44
2023/10/20 03:44:22;;;;;;;2.05;1.88;;;;;;;14.17;100.00;95267.59;4102896;28;20238;-45
2023/10/20 03:46:26;;;;;;;1.65;1.55;;;;;;;14.14;100.00;95267.50;4133894;28;20241;-45
2023/10/20 03:48:29;;;;;;;1.88;1.77;;;;;;;14.16;100.00;95273.47;4133756;28;20260;-46
2023/10/20 03:50:35;;;;;;;2.33;1.83;;;;;;;14.18;100.00;95280.22;4117620;28;20368;-47
2023/10/20 03:52:37;;;;;;;3.75;1.67;;;;;;;14.16;100.00;95279.75;4101043;28;20218;-44
2023/10/20 03:54:39;;;;;;;1.35;1.25;;;;;;;14.12;100.00;95276.13;4120984;28;20596;-46
2023/10/20 03:56:41;;;;;;;2.30;1.60;;;;;;;14.18;100.00;95266.47;4135312;28;20209;-48
2023/10/20 03:58:46;;;;;;;5.00;1.40;;;;;;;14.16;100.00;95254.22;4104109;28;20215;-45
2023/10/20 04:00:57;;;;;;;1.95;1.85;;;;;;;14.18;100.00;95236.22;4108925;28;20207;-45
2023/10/20 04:02:59;;;;;;;1.48;1.38;;;;;;;14.18;100.00;95227.97;4136882;28;20239;-45
2023/10/20 04:05:01;;;;;;;1.52;1.42;;;;;;;14.10;100.00;95219.88;4136800;28;20210;-45
2023/10/20 04:07:04;;;;;;;1.92;1.73;;;;;;;14.12;100.00;95215.63;4105786;28;20211;-45
2023/10/20 04:09:09;;;;;;;1.48;1.35;;;;;;;14.15;100.00;95212.16;4124647;28;20668;-45
2023/10/20 04:11:12;;;;;;;1.67;1.20;;;;;;;14.13;100.00;95197.97;4119919;28;20214;-47
2023/10/20 04:13:15;;;;;;;2.40;1.70;;;;;;;14.10;100.00;95186.91;4104294;28;20231;-45
2023/10/20 04:15:19;;;;;;;0.98;0.98;;;;;;;14.10;100.00;95176.69;4105424;28;20208;-46
2023/10/20 04:17:21;;;;;;;1.70;1.60;;;;;;;14.13;100.00;95169.69;4101548;28;20222;-45
2023/10/20 04:19:25;;;;;;;1.50;1.40;;;;;;;14.12;100.00;95155.16;4119383;28;20225;-44
2023/10/20 04:21:26;;;;;;;1.55;1.20;;;;;;;14.11;100.00;95144.50;4134981;28;20258;-44
2023/10/20 04:23:29;;;;;;;1.30;1.20;;;;;;;14.13;100.00;95143.00;4107232;28;20231;-45
2023/10/20 04:25:39;;;;;;;1.30;1.20;;;;;;;14.10;100.00;95123.66;4105935;28;20234;-44
2023/10/20 04:28:01;;;;;;;1.27;1.17;;;;;;;14.14;100.00;95114.34;4121437;28;20206;-46
2023/10/20 04:52:58;;;;;;;2.97;1.52;;;;;;;14.13;100.00;95092.69;4103867;28;20611;-43
2023/10/20 04:57:52;;;;;;;1.60;1.50;;;;;;;14.14;100.00;95094.28;4105175;28;20273;-43
2023/10/20 05:02:39;;;;;;;0.98;0.95;;;;;;;14.13;100.00;95098.19;4078917;28;20211;-44
2023/10/20 05:04:46;;;;;;;1.73;1.63;;;;;;;14.10;100.00;95083.19;4098089;28;20211;-44
2023/10/20 05:06:57;;;;;;;1.38;1.38;;;;;;;14.12;100.00;95078.16;4137508;28;20217;-45
2023/10/20 05:08:59;;;;;;;2.20;1.77;;;;;;;14.14;100.00;95070.34;4103026;28;20308;-44
2023/10/20 05:11:01;;;;;;;1.35;1.25;;;;;;;14.14;100.00;95072.28;4103739;28;20731;-45
2023/10/20 05:13:03;;;;;;;1.63;1.33;;;;;;;14.16;100.00;95081.78;4100274;28;20231;-44
2023/10/20 05:15:05;;;;;;;1.60;1.50;;;;;;;14.18;100.00;95065.75;4119932;28;20293;-43
2023/10/20 05:17:10;;;;;;;1.30;1.20;;;;;;;14.14;100.00;95055.78;4118855;28;20518;-45
2023/10/20 05:19:12;;;;;;;2.88;2.03;;;;;;;14.17;100.00;95057.84;4119421;28;20214;-44
2023/10/20 05:21:14;;;;;;;1.38;1.10;;;;;;;14.12;100.00;95047.94;4133358;28;20214;-44
2023/10/20 05:23:16;;;;;;;1.63;1.38;;;;;;;14.13;100.00;95049.50;4102946;28;20230;-45
2023/10/20 05:25:17;;;;;;;1.35;1.25;;;;;;;14.09;100.00;95042.34;4118376;28;20222;-46
2023/10/20 05:27:19;;;;;;;1.20;1.15;;;;;;;14.06;100.00;95041.09;4118260;28;20219;-45
2023/10/20 05:29:21;;;;;;;1.73;1.27;;;;;;;14.05;100.00;95042.25;4133788;28;20205;-44
2023/10/20 05:31:26;;;;;;;0.93;0.93;;;;;;;14.03;100.00;95028.06;4103515;28;20203;-44
2023/10/20 05:33:29;;;;;;;1.33;1.30;;;;;;;14.07;100.00;95025.38;4101199;28;20678;-46
2023/10/20 05:35:31;;;;;;;0.80;0.80;;;;;;;14.04;100.00;95009.63;4119918;28;20353;-44
2023/10/20 05:37:33;;;;;;;1.60;1.50;;;;;;;14.01;100.00;95013.88;4121467;28;20811;-44
2023/10/20 05:39:34;;;;;;;1.55;0.90;;;;;;;14.04;100.00;95013.16;4117000;28;20281;-47
2023/10/20 05:41:37;;;;;;;1.20;1.10;;;;;;;14.09;100.00;95014.84;4133287;28;20364;-46
2023/10/20 05:43:39;;;;;;;1.15;1.13;;;;;;;14.03;100.00;95011.56;4118988;28;20238;-45
2023/10/20 05:45:42;;;;;;;0.98;0.98;;;;;;;13.99;100.00;95009.88;4116928;28;20723;-44
2023/10/20 05:47:45;;;;;;;2.10;1.08;;;;;;;13.99;100.00;94993.41;4118345;28;20425;-44
2023/10/20 05:49:47;;;;;;;1.92;1.15;;;;;;;13.99;100.00;94987.91;4099441;28;20691;-46
2023/10/20 05:51:52;;;;;;;1.05;0.95;;;;;;;13.93;100.00;94973.66;4099121;28;20723;-45
2023/10/20 05:53:54;;;;;;;9.75;0.88;;;;;;;13.99;100.00;94963.97;4116355;28;20258;-44
2023/10/20 05:55:55;;;;;;;1.20;1.10;;;;;;;14.00;100.00;94953.75;4133324;28;20268;-44
2023/10/20 05:58:00;;;;;;;1.13;1.02;;;;;;;13.96;100.00;94948.19;4102445;28;20211;-45
2023/10/20 06:00:03;;;;;;;0.93;0.93;;;;;;;14.03;100.00;94937.34;4119024;28;20217;-44
2023/10/20 06:02:05;;;;;;;1.20;1.10;;;;;;;13.97;100.00;94930.53;4118835;28;20211;-45
2023/10/20 06:04:08;;;;;;;1.58;1.27;;;;;;;13.98;100.00;94926.63;4135542;28;20229;-45
2023/10/20 06:06:10;;;;;;;9.18;1.05;;;;;;;13.96;100.00;94926.19;4119002;28;20236;-44
2023/10/20 06:08:12;;;;;;;1.33;1.00;;;;;;;13.93;100.00;94929.69;4085308;28;20226;-45
2023/10/20 06:10:21;;;;;;;2.90;1.40;;;;;;;13.96;100.00;94931.69;4135813;28;20213;-45
2023/10/20 06:12:23;;;;;;;1.90;1.63;;;;;;;13.99;100.00;94922.75;4118226;28;20313;-43
2023/10/20 06:14:26;;;;;;;1.20;1.10;;;;;;;13.96;100.00;94917.94;4137081;28;20324;-45
2023/10/20 06:16:27;;;;;;;1.67;1.58;;;;;;;13.92;100.00;94914.34;4116899;28;20230;-44
2023/10/20 06:18:29;;;;;;;2.30;2.10;;;;;;;13.91;100.00;94909.97;4122230;28;20222;-46
2023/10/20 06:20:40;;;;;;;1.40;1.30;;;;;;;13.92;100.00;94906.09;4136536;28;20209;-44
2023/10/20 06:22:42;;;;;;;0.82;0.82;;;;;;;13.89;100.00;94895.81;4103357;28;20215;-44
2023/10/20 06:24:45;;;;;;;2.45;1.85;;;;;;;13.87;100.00;94902.81;4099770;28;20215;-45
2023/10/20 06:26:47;;;;;;;1.60;1.50;;;;;;;13.87;100.00;94887.13;4115631;28;20627;-44
2023/10/20 06:28:49;;;;;;;2.35;1.55;;;;;;;13.93;100.00;94890.38;4102509;28;20286;-44
2023/10/20 06:30:51;;;;;;;4.53;2.22;;;;;;;13.93;100.00;94891.19;4135456;28;20198;-45
2023/10/20 06:35:32;;;;;;;1.50;1.40;;;;;;;13.98;100.00;94896.38;4095447;28;20214;-44
2023/10/20 06:37:53;;;;;;;1.08;1.08;;;;;;;13.92;100.00;94889.59;4087217;28;20231;-45
2023/10/20 06:39:56;;;;;;;1.90;1.80;;;;;;;13.91;100.00;94887.22;4104214;28;20842;-45
2023/10/20 06:41:57;;;;;;;1.10;1.00;;;;;;;13.91;100.00;94893.50;4118998;28;20639;-45
2023/10/20 06:43:59;;;;;;;1.20;1.00;;;;;;;13.89;100.00;94884.81;4100616;28;20305;-46
2023/10/20 06:46:01;;;;;;;1.20;1.10;;;;;;;13.94;100.00;94892.78;4116392;28;20267;-44
2023/10/20 06:48:03;;;;;;;1.88;1.73;;;;;;;13.93;100.00;94884.88;4118650;28;20654;-46
2023/10/20 06:50:07;;;;;;;1.45;1.30;;;;;;;13.98;100.00;94871.66;4100917;28;20234;-45
2023/10/20 06:52:08;;;;;;;0.77;0.70;;;;;;;13.98;100.00;94868.91;4116563;28;20237;-46
2023/10/20 06:54:10;;;;;;;1.10;1.00;;;;;;;13.97;100.00;94867.31;4116352;28;20270;-45
2023/10/20 06:56:12;;;;;;;1.40;1.20;;;;;;;13.96;100.00;94857.47;4116459;28;20248;-45
2023/10/20 06:58:19;;;;;;;0.82;0.77;;;;;;;14.02;100.00;94867.03;4120036;28;20301;-45
2023/10/20 07:00:21;;;;;;;1.77;0.90;;;;;;;14.04;100.00;94864.72;4118105;28;20289;-44
2023/10/20 07:02:25;;;;;;;1.17;1.00;;;;;;;13.97;100.00;94859.06;4103942;28;20736;-44
2023/10/20 07:04:28;;;;;;;0.70;0.70;;;;;;;13.95;100.00;94861.38;4136964;28;20691;-44
2023/10/20 07:06:33;;;;;;;5.47;0.73;;;;;;;13.93;100.00;94858.22;4121697;28;20343;-44
2023/10/20 07:08:37;;;;;;;4.55;0.90;;;;;;;14.00;100.00;94855.63;4101578;28;20203;-45
2023/10/20 07:10:39;;;;;;;0.88;0.88;;;;;;;14.09;100.00;94856.19;4118411;28;20207;-44
2023/10/20 07:12:43;;;;;;;0.50;0.50;;;;;;;14.03;100.00;94857.63;4104984;28;20210;-44
2023/10/20 07:14:45;;;;;;;1.38;0.77;;;;;;;14.09;100.00;94869.16;4104958;28;20629;-44
2023/10/20 07:16:49;;;;;;;0.70;0.70;;;;;;;14.03;100.00;94874.13;4111405;28;20202;-45
2023/10/20 07:18:54;;;;;;;0.70;0.70;;;;;;;14.06;100.00;94872.59;4105215;28;20670;-45
2023/10/20 07:20:56;;;;;;;2.88;1.23;;;;;;;14.01;100.00;94870.94;4117474;28;20193;-45
2023/10/20 07:23:00;;;;;;;0.70;0.70;;;;;;;14.08;100.00;94864.78;4103979;28;20214;-46
2023/10/20 07:25:03;;;;;;;0.85;0.77;;;;;;;14.14;100.00;94864.16;4119909;28;20214;-44
2023/10/20 07:27:05;;;;;;;1.20;1.10;;;;;;;14.04;100.00;94864.72;4104398;28;20247;-45
2023/10/20 07:29:12;;;;;;;0.73;0.73;;;;;;;14.11;100.00;94862.13;4105045;28;20231;-45
2023/10/20 07:31:16;;;;;;;0.63;0.60;;;;;;;14.10;100.00;94863.28;4122011;28;20209;-45
2023/10/20 07:33:26;;;;;;;1.55;1.30;;;;;;;14.04;100.00;94859.22;4137077;28;20241;-45
2023/10/20 07:35:28;;;;;;;0.98;0.90;;;;;;;14.00;100.00;94852.06;4123927;28;20209;-45
2023/10/20 07:37:31;;;;;;;0.93;0.93;;;;;;;14.02;100.00;94850.53;4119787;28;20648;-45
2023/10/20 07:39:35;;;;;;;1.45;1.35;;;;;;;14.05;100.00;94860.03;4087986;28;20211;-45
2023/10/20 07:41:37;;;;;;;2.15;1.60;;;;;;;14.01;100.00;94865.44;4088358;28;20207;-45
2023/10/20 07:43:40;;;;;;;1.52;1.42;;;;;;;14.00;100.00;94869.34;4089905;28;20637;-45
2023/10/20 07:45:42;;;;;;;3.17;1.77;;;;;;;14.02;100.00;94867.03;4120769;28;20202;-45
2023/10/20 07:47:44;;;;;;;1.33;1.00;;;;;;;14.04;100.00;94872.97;4119412;28;20735;-45
2023/10/20 07:49:46;;;;;;;1.65;1.10;;;;;;;14.00;100.00;94876.78;4116399;28;20237;-45
2023/10/20 07:51:48;;;;;;;0.93;0.70;;;;;;;14.02;100.00;94880.78;4104977;28;20213;-46
2023/10/20 07:53:50;;;;;;;0.70;0.70;;;;;;;14.04;100.00;94892.19;4119760;28;20718;-46
2023/10/20 07:55:51;;;;;;;1.00;0.98;;;;;;;14.11;100.00;94902.56;4118001;28;20295;-45
2023/10/20 07:57:55;;;;;;;0.80;0.80;;;;;;;14.05;100.00;94893.00;4136974;28;20236;-46
2023/10/20 07:59:57;;;;;;;0.93;0.77;;;;;;;14.12;100.00;94893.97;4105850;28;20238;-45
2023/10/20 08:01:58;;;;;;;1.27;1.00;;;;;;;14.12;100.00;94893.97;4118324;28;20346;-46
2023/10/20 08:04:02;;;;;;;1.05;1.00;;;;;;;14.14;100.00;94891.66;4120332;28;20235;-46
2023/10/20 08:06:05;;;;;;;0.82;0.70;;;;;;;14.16;100.00;94911.31;4104175;28;20206;-46
2023/10/20 08:08:10;;;;;;;1.10;1.00;;;;;;;14.18;100.00;94917.28;4119216;28;20251;-45
2023/10/20 08:10:12;;;;;;;0.93;0.90;;;;;;;14.20;100.00;94917.72;4119346;28;20565;-46
2023/10/20 08:12:14;;;;;;;1.63;0.95;;;;;;;14.18;100.00;94925.53;4120744;28;20215;-46
2023/10/20 08:14:16;;;;;;;2.70;1.40;;;;;;;14.21;100.00;94929.50;4122182;28;20229;-46
2023/10/20 08:16:20;;;;;;;2.97;1.52;;;;;;;14.25;100.00;94939.47;4135240;28;20720;-46
2023/10/20 08:18:22;;;;;;;0.73;0.73;;;;;;;14.30;100.00;94944.66;4119476;28;20214;-46
2023/10/20 08:20:24;;;;;;;1.65;1.13;;;;;;;14.35;100.00;94947.13;4106844;28;20221;-46
2023/10/20 08:22:25;;;;;;;0.90;0.90;;;;;;;14.38;100.00;94951.88;4100005;28;20238;-45
2023/10/20 08:24:28;;;;;;;0.90;0.90;;;;;;;14.42;100.00;94950.03;4100158;28;20822;-45
2023/10/20 08:26:31;;;;;;;1.02;1.02;;;;;;;14.42;100.00;94950.03;4134005;28;20309;-45
2023/10/20 08:28:33;;;;;;;2.15;1.52;;;;;;;14.51;100.00;94961.59;4104830;28;20207;-45
2023/10/20 08:30:35;;;;;;;1.40;1.30;;;;;;;14.45;100.00;94959.50;4135550;28;20317;-45
2023/10/20 08:32:38;;;;;;;0.82;0.82;;;;;;;14.50;100.00;94971.00;4138107;28;20605;-45
2023/10/20 08:34:40;;;;;;;1.67;1.05;;;;;;;14.60;100.00;94978.69;4119648;28;20233;-45
2023/10/20 08:36:42;;;;;;;1.02;0.93;;;;;;;14.58;100.00;94999.47;4102896;28;20196;-45
2023/10/20 08:38:46;;;;;;;1.05;0.93;;;;;;;14.55;100.00;95001.00;4119475;28;20237;-45
2023/10/20 08:40:49;;;;;;;0.88;0.88;;;;;;;14.62;100.00;95012.16;4118608;28;20269;-46
2023/10/20 08:43:10;;;;;;;1.50;1.27;;;;;;;14.81;100.00;95025.91;4102589;28;20684;-46
2023/10/20 08:45:13;;;;;;;4.68;1.95;;;;;;;14.53;100.00;95025.31;4137221;28;20197;-46
2023/10/20 08:47:16;;;;;;;2.15;1.80;;;;;;;14.61;100.00;95032.56;4103915;28;20231;-45
2023/10/20 08:49:18;;;;;;;2.70;2.13;;;;;;;14.72;100.00;95022.59;4119527;28;20296;-45
2023/10/20 08:51:21;;;;;;;2.42;1.88;;;;;;;14.85;100.00;95037.81;4118932;28;20945;-45
2023/10/20 08:53:23;;;;;;;2.15;2.00;;;;;;;14.78;100.00;95042.34;4103861;28;20422;-46
2023/10/20 08:55:25;;;;;;;1.05;1.02;;;;;;;14.70;100.00;95038.66;4118539;28;20215;-45
2023/10/20 08:57:27;;;;;;;3.15;1.58;;;;;;;14.85;100.00;95032.31;4102083;28;20259;-46
2023/10/20 08:59:29;;;;;;;1.20;1.10;;;;;;;14.91;100.00;95033.59;4101783;28;20242;-46
2023/10/20 09:01:32;;;;;;;1.65;1.08;;;;;;;14.92;100.00;95032.44;4119470;28;20206;-45
2023/10/20 09:03:41;;;;;;;0.90;0.90;;;;;;;14.93;100.00;95038.72;4116817;28;20237;-45
2023/10/20 09:05:43;;;;;;;1.17;1.10;;;;;;;14.99;100.00;95038.09;4117293;28;20695;-45
2023/10/20 09:07:56;;;;;;;1.00;1.00;;;;;;;15.11;100.00;95035.16;4106154;28;20231;-47
2023/10/20 09:09:57;;;;;;;1.42;1.30;;;;;;;15.18;100.00;95040.84;4119462;28;20529;-46
2023/10/20 09:11:59;;;;;;;2.10;1.20;;;;;;;15.30;100.00;95037.91;4136357;28;20652;-46
2023/10/20 09:14:02;;;;;;;2.90;1.60;;;;;;;15.35;100.00;95032.16;4102648;28;20226;-46
2023/10/20 09:16:08;;;;;;;2.00;1.77;;;;;;;15.32;100.00;95037.59;4105729;28;20293;-46
2023/10/20 09:18:10;;;;;;;1.95;1.73;;;;;;;15.32;100.00;95035.63;4100809;28;20733;-45
2023/10/20 09:20:14;;;;;;;2.17;1.95;;;;;;;15.50;100.00;95041.47;4117149;28;20357;-46
2023/10/20 09:22:28;;;;;;;1.13;1.02;;;;;;;15.66;100.00;95040.22;4104116;28;20257;-46
2023/10/20 09:24:34;;;;;;;1.35;1.25;;;;;;;15.82;100.00;95043.63;4104424;28;20705;-46
2023/10/20 09:26:38;;;;;;;1.02;0.93;;;;;;;15.92;100.00;95043.03;4133586;28;20317;-45
2023/10/20 09:28:47;;;;;;;1.45;1.23;;;;;;;15.77;100.00;95037.63;4134031;28;20247;-45
2023/10/20 09:30:49;;;;;;;2.05;1.63;;;;;;;15.72;100.00;95027.72;4118442;28;20206;-46
2023/10/20 09:32:50;;;;;;;1.25;0.98;;;;;;;15.67;100.00;95019.75;4085931;28;20219;-45
2023/10/20 09:34:52;;;;;;;1.20;0.95;;;;;;;15.82;100.00;95015.28;4135438;28;20245;-46
2023/10/20 09:37:00;;;;;;;4.88;2.50;;;;;;;15.84;100.00;95019.22;4103221;28;20222;-46
2023/10/20 09:39:05;;;;;;;1.63;1.27;;;;;;;15.94;100.00;95013.13;4118101;28;20217;-46
2023/10/20 09:41:12;;;;;;;1.08;1.00;;;;;;;15.97;100.00;95017.88;4085464;28;21052;-46
2023/10/20 09:43:22;;;;;;;1.15;1.05;;;;;;;15.92;100.00;95015.47;4121156;28;20584;-45
2023/10/20 09:45:37;;;;;;;1.23;0.90;;;;;;;16.00;100.00;95016.34;4118930;28;20216;-46
2023/10/20 09:47:40;;;;;;;0.60;0.60;;;;;;;16.11;100.00;95017.31;4119808;28;20229;-46
2023/10/20 09:49:43;;;;;;;1.00;0.88;;;;;;;15.99;100.00;95010.06;4102634;28;20211;-45
2023/10/20 09:51:45;;;;;;;0.90;0.70;;;;;;;16.17;100.00;95013.88;4116816;28;20214;-46
2023/10/20 09:53:48;;;;;;;0.80;0.80;;;;;;;16.23;100.00;95020.66;4119737;28;20639;-46
2023/10/20 09:55:50;;;;;;;1.08;0.80;;;;;;;16.41;100.00;95024.53;4136335;28;20249;-45
2023/10/20 09:57:52;;;;;;;0.70;0.70;;;;;;;16.41;100.00;95021.75;4107625;28;20272;-45
2023/10/20 09:59:57;;;;;;;1.33;0.95;;;;;;;16.40;100.00;95020.16;4106975;28;20215;-44
2023/10/20 10:01:59;;;;;;;1.15;1.10;;;;;;;16.46;100.00;95032.47;4139379;28;20304;-45